Time;durP1;ratioP1;P1;durP2;ratioP2;P2;SDS_P1;SDS_P2;PMS_P1;PMS_P2;Temp;Humidity;BMP_temperature;BMP_pressure;BME280_temperature;BME280_humidity;BME280_pressure;Samples;Min_cycle;Max_cycle;Signal;HPM_P1;HPM_P2
2023/03/30 00:00:41;;;;;;;;;;;;;;;;;;5092551;28;1975;-75
2023/03/30 00:03:07;;;;;;;;;;;;;;;;;;5091990;28;1246;-75
2023/03/30 00:05:33;;;;;;;;;;;;;;;;;;5092093;28;1182;-75
2023/03/30 00:07:59;;;;;;;;;;;;;;;;;;5091620;28;1122;-74
2023/03/30 00:10:25;;;;;;;;;;;;;;;;;;5074828;28;1234;-75
2023/03/30 00:12:51;;;;;;;;;;;;;;;;;;5092351;28;1325;-76
2023/03/30 00:15:18;;;;;;;;;;;;;;;;;;5092139;28;1316;-76
2023/03/30 00:17:43;;;;;;;;;;;;;;;;;;5091265;28;1274;-76
2023/03/30 00:20:12;;;;;;;;;;;;;;;;;;5075236;28;1914;-75
2023/03/30 00:22:38;;;;;;;;;;;;;;;;;;5081934;28;1317;-76
2023/03/30 00:25:08;;;;;;;;;;;;;;;;;;5112652;28;1073;-77
2023/03/30 00:27:34;;;;;;;;;;;;;;;;;;5110029;28;1229;-76
2023/03/30 00:30:00;;;;;;;;;;;;;;;;;;5109326;28;1091;-76
2023/03/30 00:32:25;;;;;;;;;;;;;;;;;;5108636;28;1333;-75
2023/03/30 00:34:51;;;;;;;;;;;;;;;;;;5110299;28;871;-76
2023/03/30 00:37:16;;;;;;;;;;;;;;;;;;5108742;28;1331;-77
2023/03/30 00:39:42;;;;;;;;;;;;;;;;;;5109221;28;1878;-76
2023/03/30 00:42:12;;;;;;;;;;;;;;;;;;5111682;28;987;-77
2023/03/30 00:44:56;;;;;;;;;;;;;;;;;;5108557;28;1278;-76
2023/03/30 00:47:22;;;;;;;;;;;;;;;;;;5112781;28;1460;-76
2023/03/30 00:49:48;;;;;;;;;;;;;;;;;;5114610;28;1108;-77
2023/03/30 00:52:18;;;;;;;;;;;;;;;;;;5115895;28;790;-76
2023/03/30 00:54:44;;;;;;;;;;;;;;;;;;5112505;28;1305;-75
2023/03/30 00:57:09;;;;;;;;;;;;;;;;;;5112617;28;927;-77
2023/03/30 00:59:35;;;;;;;;;;;;;;;;;;5110567;28;1951;-77
2023/03/30 01:02:00;;;;;;;;;;;;;;;;;;5093935;28;1344;-76
2023/03/30 01:04:27;;;;;;;;;;;;;;;;;;5111275;28;1170;-76
2023/03/30 01:06:54;;;;;;;;;;;;;;;;;;5082371;28;1322;-76
2023/03/30 01:09:19;;;;;;;;;;;;;;;;;;5097335;28;863;-76
2023/03/30 01:11:44;;;;;;;;;;;;;;;;;;5096606;28;1183;-75
2023/03/30 01:14:11;;;;;;;;;;;;;;;;;;5096751;28;1198;-75
2023/03/30 01:16:41;;;;;;;;;;;;;;;;;;5097029;28;848;-76
2023/03/30 01:19:22;;;;;;;;;;;;;;;;;;5094815;28;1166;-75
2023/03/30 01:22:06;;;;;;;;;;;;;;;;;;5094278;28;1230;-76
2023/03/30 01:24:48;;;;;;;;;;;;;;;;;;5094324;28;1221;-76
2023/03/30 01:27:16;;;;;;;;;;;;;;;;;;5095608;28;852;-75
2023/03/30 01:29:48;;;;;;;;;;;;;;;;;;5095278;28;903;-76
2023/03/30 01:32:41;;;;;;;;;;;;;;;;;;5093998;28;1143;-76
2023/03/30 01:35:07;;;;;;;;;;;;;;;;;;5095024;28;916;-76
2023/03/30 01:37:41;;;;;;;;;;;;;;;;;;5094468;28;869;-76
2023/03/30 01:40:08;;;;;;;;;;;;;;;;;;5094104;28;1909;-76
2023/03/30 01:42:52;;;;;;;;;;;;;;;;;;5094634;28;832;-76
2023/03/30 01:45:19;;;;;;;;;;;;;;;;;;5094007;28;1261;-76
2023/03/30 01:47:55;;;;;;;;;;;;;;;;;;5093698;28;1317;-76
2023/03/30 01:50:27;;;;;;;;;;;;;;;;;;5093428;28;1169;-76
2023/03/30 01:52:58;;;;;;;;;;;;;;;;;;5093451;28;1293;-76
2023/03/30 01:55:24;;;;;;;;;;;;;;;;;;5093486;28;1107;-76
2023/03/30 01:57:56;;;;;;;;;;;;;;;;;;5092717;28;1353;-77
2023/03/30 02:00:22;;;;;;;;;;;;;;;;;;5093089;28;1909;-76
2023/03/30 02:03:01;;;;;;;;;;;;;;;;;;5094168;28;903;-76
2023/03/30 02:05:27;;;;;;;;;;;;;;;;;;5094732;28;852;-76
2023/03/30 02:07:55;;;;;;;;;;;;;;;;;;5092461;28;1367;-76
2023/03/30 02:10:23;;;;;;;;;;;;;;;;;;5092770;28;1228;-76
2023/03/30 02:12:50;;;;;;;;;;;;;;;;;;5092241;28;1126;-76
2023/03/30 02:15:17;;;;;;;;;;;;;;;;;;5092377;28;1016;-76
2023/03/30 02:17:46;;;;;;;;;;;;;;;;;;5093587;28;1010;-75
2023/03/30 02:20:11;;;;;;;;;;;;;;;;;;5092655;28;1910;-75
2023/03/30 02:22:37;;;;;;;;;;;;;;;;;;5093595;28;902;-75
2023/03/30 02:25:05;;;;;;;;;;;;;;;;;;5093042;28;1304;-75
2023/03/30 02:27:31;;;;;;;;;;;;;;;;;;5075953;28;1339;-75
2023/03/30 02:29:57;;;;;;;;;;;;;;;;;;5076674;28;1226;-75
2023/03/30 02:32:27;;;;;;;;;;;;;;;;;;5093516;28;1206;-75
2023/03/30 02:34:59;;;;;;;;;;;;;;;;;;5093295;28;1138;-77
2023/03/30 02:37:43;;;;;;;;;;;;;;;;;;5093236;28;1436;-77
2023/03/30 02:40:12;;;;;;;;;;;;;;;;;;5093260;28;1964;-76
2023/03/30 02:42:41;;;;;;;;;;;;;;;;;;5093017;28;1198;-77
2023/03/30 02:45:07;;;;;;;;;;;;;;;;;;5092692;28;1227;-78
2023/03/30 02:47:41;;;;;;;;;;;;;;;;;;5092963;28;1197;-77
2023/03/30 02:50:32;;;;;;;;;;;;;;;;;;5127154;27;1238;-77
2023/03/30 02:53:22;;;;;;;;;;;;;;;;;;5092733;28;1170;-77
2023/03/30 02:55:59;;;;;;;;;;;;;;;;;;5092205;28;1174;-78
2023/03/30 02:58:31;;;;;;;;;;;;;;;;;;5092722;28;1388;-78
2023/03/30 03:00:59;;;;;;;;;;;;;;;;;;5093322;28;1961;-77
2023/03/30 03:03:33;;;;;;;;;;;;;;;;;;5092122;28;1458;-77
2023/03/30 03:06:01;;;;;;;;;;;;;;;;;;5093771;28;884;-77
2023/03/30 03:08:32;;;;;;;;;;;;;;;;;;5093145;28;892;-77
2023/03/30 03:10:58;;;;;;;;;;;;;;;;;;5092008;28;1296;-77
2023/03/30 03:13:23;;;;;;;;;;;;;;;;;;5092469;28;1213;-77
2023/03/30 03:15:49;;;;;;;;;;;;;;;;;;5093659;28;1046;-77
2023/03/30 03:18:14;;;;;;;;;;;;;;;;;;5092990;28;1071;-77
2023/03/30 03:20:40;;;;;;;;;;;;;;;;;;5091373;28;1960;-77
2023/03/30 03:23:05;;;;;;;;;;;;;;;;;;5093297;28;848;-77
2023/03/30 03:25:31;;;;;;;;;;;;;;;;;;5074481;28;1210;-77
2023/03/30 03:27:56;;;;;;;;;;;;;;;;;;5091468;28;805;-77
2023/03/30 03:30:21;;;;;;;;;;;;;;;;;;5092205;28;1289;-77
2023/03/30 03:32:47;;;;;;;;;;;;;;;;;;5091844;28;1289;-77
2023/03/30 03:35:13;;;;;;;;;;;;;;;;;;5091538;28;904;-76
2023/03/30 03:37:38;;;;;;;;;;;;;;;;;;5090950;28;1218;-76
2023/03/30 03:40:05;;;;;;;;;;;;;;;;;;5091909;28;1906;-77
2023/03/30 03:42:30;;;;;;;;;;;;;;;;;;5092353;28;860;-76
2023/03/30 03:44:55;;;;;;;;;;;;;;;;;;5091788;28;1231;-77
2023/03/30 03:47:21;;;;;;;;;;;;;;;;;;5091715;28;821;-77
2023/03/30 03:49:47;;;;;;;;;;;;;;;;;;5091287;28;832;-77
2023/03/30 03:52:12;;;;;;;;;;;;;;;;;;5091795;28;1147;-77
2023/03/30 03:54:38;;;;;;;;;;;;;;;;;;5091189;28;1198;-77
2023/03/30 03:57:04;;;;;;;;;;;;;;;;;;5092683;28;907;-77
2023/03/30 03:59:30;;;;;;;;;;;;;;;;;;5074736;28;1963;-76
2023/03/30 04:01:55;;;;;;;;;;;;;;;;;;5074376;28;1154;-76
2023/03/30 04:04:20;;;;;;;;;;;;;;;;;;5091474;28;1329;-76
2023/03/30 04:06:46;;;;;;;;;;;;;;;;;;5091420;28;1278;-76
2023/03/30 04:09:11;;;;;;;;;;;;;;;;;;5091734;28;1225;-76
2023/03/30 04:11:36;;;;;;;;;;;;;;;;;;5093483;28;884;-76
2023/03/30 04:14:02;;;;;;;;;;;;;;;;;;5093669;28;947;-76
2023/03/30 04:16:27;;;;;;;;;;;;;;;;;;5091923;28;884;-76
2023/03/30 04:18:52;;;;;;;;;;;;;;;;;;5093875;28;892;-76
2023/03/30 04:21:18;;;;;;;;;;;;;;;;;;5079204;28;1972;-76
2023/03/30 04:23:47;;;;;;;;;;;;;;;;;;5078975;28;1187;-77
2023/03/30 04:26:14;;;;;;;;;;;;;;;;;;5096089;28;885;-76
2023/03/30 04:28:39;;;;;;;;;;;;;;;;;;5095557;28;1360;-76
2023/03/30 04:31:09;;;;;;;;;;;;;;;;;;5097367;28;884;-77
2023/03/30 04:33:36;;;;;;;;;;;;;;;;;;5097170;28;840;-77
2023/03/30 04:36:02;;;;;;;;;;;;;;;;;;5096163;28;1261;-77
2023/03/30 04:38:28;;;;;;;;;;;;;;;;;;5095110;28;868;-77
2023/03/30 04:40:54;;;;;;;;;;;;;;;;;;5095930;28;1890;-77
2023/03/30 04:43:20;;;;;;;;;;;;;;;;;;5095021;28;1194;-77
2023/03/30 04:45:50;;;;;;;;;;;;;;;;;;5095519;28;1133;-77
2023/03/30 04:48:15;;;;;;;;;;;;;;;;;;5095487;28;1206;-76
2023/03/30 04:50:40;;;;;;;;;;;;;;;;;;5078062;28;1285;-77
2023/03/30 04:53:07;;;;;;;;;;;;;;;;;;5078570;28;1175;-76
2023/03/30 04:55:32;;;;;;;;;;;;;;;;;;5095193;28;1210;-76
2023/03/30 04:57:57;;;;;;;;;;;;;;;;;;5078395;28;1159;-77
2023/03/30 05:00:22;;;;;;;;;;;;;;;;;;5095161;28;1886;-77
2023/03/30 05:02:48;;;;;;;;;;;;;;;;;;5095331;28;1265;-76
2023/03/30 05:05:13;;;;;;;;;;;;;;;;;;5095217;28;943;-77
2023/03/30 05:07:38;;;;;;;;;;;;;;;;;;5095831;28;935;-76
2023/03/30 05:10:04;;;;;;;;;;;;;;;;;;5077320;28;1258;-77
2023/03/30 05:12:29;;;;;;;;;;;;;;;;;;5077738;28;1297;-77
2023/03/30 05:14:54;;;;;;;;;;;;;;;;;;5094056;28;1249;-78
2023/03/30 05:17:20;;;;;;;;;;;;;;;;;;5095790;28;1006;-77
2023/03/30 05:19:45;;;;;;;;;;;;;;;;;;5082765;28;1906;-77
2023/03/30 05:22:10;;;;;;;;;;;;;;;;;;5087595;28;1357;-76
2023/03/30 05:24:37;;;;;;;;;;;;;;;;;;5102287;28;1257;-77
2023/03/30 05:27:05;;;;;;;;;;;;;;;;;;5094385;28;884;-76
2023/03/30 05:29:31;;;;;;;;;;;;;;;;;;5093817;28;1308;-74
2023/03/30 05:31:56;;;;;;;;;;;;;;;;;;5092489;28;1242;-75
2023/03/30 05:34:21;;;;;;;;;;;;;;;;;;5076775;28;1262;-75
2023/03/30 05:36:47;;;;;;;;;;;;;;;;;;5093453;28;1135;-75
2023/03/30 05:39:13;;;;;;;;;;;;;;;;;;5093914;28;1288;-75
2023/03/30 05:41:38;;;;;;;;;;;;;;;;;;5093942;28;1902;-75
2023/03/30 05:44:03;;;;;;;;;;;;;;;;;;5077640;28;1235;-75
2023/03/30 05:46:29;;;;;;;;;;;;;;;;;;5093809;28;872;-75
2023/03/30 05:48:55;;;;;;;;;;;;;;;;;;5093846;28;1343;-75
2023/03/30 05:51:20;;;;;;;;;;;;;;;;;;5094175;28;1158;-75
2023/03/30 05:53:46;;;;;;;;;;;;;;;;;;5094190;28;1174;-75
2023/03/30 05:56:11;;;;;;;;;;;;;;;;;;5093461;28;955;-75
2023/03/30 05:58:37;;;;;;;;;;;;;;;;;;5095093;28;919;-76
2023/03/30 06:01:04;;;;;;;;;;;;;;;;;;5077158;28;1910;-75
2023/03/30 06:03:30;;;;;;;;;;;;;;;;;;5093360;28;1213;-75
2023/03/30 06:05:55;;;;;;;;;;;;;;;;;;5094065;28;927;-75
2023/03/30 06:08:20;;;;;;;;;;;;;;;;;;5093510;28;1190;-76
2023/03/30 06:10:55;;;;;;;;;;;;;;;;;;5093296;28;1246;-76
2023/03/30 06:13:21;;;;;;;;;;;;;;;;;;5094452;28;962;-76
2023/03/30 06:15:46;;;;;;;;;;;;;;;;;;5093208;28;1185;-76
2023/03/30 06:18:12;;;;;;;;;;;;;;;;;;5094132;28;934;-76
2023/03/30 06:20:37;;;;;;;;;;;;;;;;;;5075893;28;1905;-76
2023/03/30 06:23:02;;;;;;;;;;;;;;;;;;5094370;28;856;-75
2023/03/30 06:25:28;;;;;;;;;;;;;;;;;;5094274;28;1114;-76
2023/03/30 06:27:54;;;;;;;;;;;;;;;;;;5093874;28;912;-75
2023/03/30 06:30:20;;;;;;;;;;;;;;;;;;5093864;28;935;-75
2023/03/30 06:32:45;;;;;;;;;;;;;;;;;;5092284;28;1288;-74
2023/03/30 06:35:15;;;;;;;;;;;;;;;;;;5092063;28;1321;-75
2023/03/30 06:37:40;;;;;;;;;;;;;;;;;;5092105;28;900;-76
2023/03/30 06:40:12;;;;;;;;;;;;;;;;;;5092433;28;1968;-76
2023/03/30 06:42:38;;;;;;;;;;;;;;;;;;5091069;28;1305;-75
2023/03/30 06:45:03;;;;;;;;;;;;;;;;;;5093187;28;1258;-76
2023/03/30 06:47:29;;;;;;;;;;;;;;;;;;5092343;28;1268;-76
2023/03/30 06:49:54;;;;;;;;;;;;;;;;;;5092389;28;1268;-76
2023/03/30 06:52:19;;;;;;;;;;;;;;;;;;5092220;28;967;-75
2023/03/30 06:54:45;;;;;;;;;;;;;;;;;;5091478;28;1170;-76
2023/03/30 06:57:10;;;;;;;;;;;;;;;;;;5091864;28;1206;-75
2023/03/30 06:59:36;;;;;;;;;;;;;;;;;;5091847;28;1969;-75
2023/03/30 07:02:02;;;;;;;;;;;;;;;;;;5075271;28;1396;-76
2023/03/30 07:04:27;;;;;;;;;;;;;;;;;;5091853;28;880;-75
2023/03/30 07:06:56;;;;;;;;;;;;;;;;;;5074556;28;1362;-75
2023/03/30 07:09:22;;;;;;;;;;;;;;;;;;5091266;28;828;-75
2023/03/30 07:11:47;;;;;;;;;;;;;;;;;;5074175;28;1209;-76
2023/03/30 07:14:12;;;;;;;;;;;;;;;;;;5092409;28;1257;-75
2023/03/30 07:16:37;;;;;;;;;;;;;;;;;;5091829;28;1177;-76
2023/03/30 07:19:04;;;;;;;;;;;;;;;;;;5093033;28;933;-75
2023/03/30 07:21:30;;;;;;;;;;;;;;;;;;5093531;28;1910;-76
2023/03/30 07:23:55;;;;;;;;;;;;;;;;;;5075002;28;1214;-75
2023/03/30 07:26:21;;;;;;;;;;;;;;;;;;5091949;28;1234;-76
2023/03/30 07:28:46;;;;;;;;;;;;;;;;;;5092706;28;1313;-76
2023/03/30 07:31:13;;;;;;;;;;;;;;;;;;5093549;28;857;-76
2023/03/30 07:33:38;;;;;;;;;;;;;;;;;;5093415;28;928;-76
2023/03/30 07:36:04;;;;;;;;;;;;;;;;;;5075202;28;1322;-76
2023/03/30 07:38:29;;;;;;;;;;;;;;;;;;5092171;28;1167;-76
2023/03/30 07:40:55;;;;;;;;;;;;;;;;;;5093209;28;1901;-76
2023/03/30 07:43:20;;;;;;;;;;;;;;;;;;5075359;28;1300;-76
2023/03/30 07:45:46;;;;;;;;;;;;;;;;;;5091428;28;1195;-75
2023/03/30 07:48:11;;;;;;;;;;;;;;;;;;5092243;28;888;-75
2023/03/30 07:50:36;;;;;;;;;;;;;;;;;;5092068;28;885;-75
2023/03/30 07:53:03;;;;;;;;;;;;;;;;;;5075632;28;1195;-76
2023/03/30 07:55:28;;;;;;;;;;;;;;;;;;5091574;28;1135;-76
2023/03/30 07:57:54;;;;;;;;;;;;;;;;;;5093759;28;848;-76
2023/03/30 08:00:20;;;;;;;;;;;;;;;;;;5091568;28;1979;-76
2023/03/30 08:02:45;;;;;;;;;;;;;;;;;;5091658;28;1331;-76
2023/03/30 08:05:11;;;;;;;;;;;;;;;;;;5093288;28;911;-76
2023/03/30 08:07:37;;;;;;;;;;;;;;;;;;5091670;28;1182;-75
2023/03/30 08:10:02;;;;;;;;;;;;;;;;;;5091770;28;1393;-76
2023/03/30 08:12:27;;;;;;;;;;;;;;;;;;5093025;28;864;-76
2023/03/30 08:14:54;;;;;;;;;;;;;;;;;;5112157;28;1250;-76
2023/03/30 08:17:23;;;;;;;;;;;;;;;;;;5093481;28;1327;-76
2023/03/30 08:19:48;;;;;;;;;;;;;;;;;;5111633;28;1913;-76
2023/03/30 08:22:13;;;;;;;;;;;;;;;;;;5113343;28;983;-76
2023/03/30 08:24:38;;;;;;;;;;;;;;;;;;5094509;28;1329;-75
2023/03/30 08:27:04;;;;;;;;;;;;;;;;;;5112847;28;832;-75
2023/03/30 08:29:30;;;;;;;;;;;;;;;;;;5113131;28;860;-74
2023/03/30 08:31:55;;;;;;;;;;;;;;;;;;5112522;28;848;-74
2023/03/30 08:34:21;;;;;;;;;;;;;;;;;;5111635;28;900;-75
2023/03/30 08:36:46;;;;;;;;;;;;;;;;;;5111473;28;1215;-74
2023/03/30 08:39:11;;;;;;;;;;;;;;;;;;5113630;28;948;-76
2023/03/30 08:41:46;;;;;;;;;;;;;;;;;;5094732;28;1906;-76
2023/03/30 08:44:19;;;;;;;;;;;;;;;;;;5112233;28;1232;-76
2023/03/30 08:46:47;;;;;;;;;;;;;;;;;;5112204;28;1174;-75
2023/03/30 08:49:14;;;;;;;;;;;;;;;;;;5112083;28;1253;-75
2023/03/30 08:51:41;;;;;;;;;;;;;;;;;;5112872;28;879;-75
2023/03/30 08:54:14;;;;;;;;;;;;;;;;;;5113124;28;859;-75
2023/03/30 08:56:59;;;;;;;;;;;;;;;;;;5112435;28;1209;-74
2023/03/30 08:59:50;;;;;;;;;;;;;;;;;;5112295;28;1297;-75
2023/03/30 09:02:27;;;;;;;;;;;;;;;;;;5113207;28;1056;-74
2023/03/30 09:04:55;;;;;;;;;;;;;;;;;;5111802;28;1209;-74
2023/03/30 09:07:32;;;;;;;;;;;;;;;;;;5114624;28;1229;-74
2023/03/30 09:09:58;;;;;;;;;;;;;;;;;;5116229;28;1118;-74
2023/03/30 09:12:42;;;;;;;;;;;;;;;;;;5115185;28;1328;-74
2023/03/30 09:15:13;;;;;;;;;;;;;;;;;;5115514;28;1197;-75
2023/03/30 09:18:08;;;;;;;;;;;;;;;;;;5114832;28;1366;-75
2023/03/30 09:20:35;;;;;;;;;;;;;;;;;;5106903;28;1959;-75
2023/03/30 09:23:01;;;;;;;;;;;;;;;;;;5115949;28;1247;-74
2023/03/30 09:25:50;;;;;;;;;;;;;;;;;;5115809;28;875;-75
2023/03/30 09:28:20;;;;;;;;;;;;;;;;;;5116276;27;1038;-75
2023/03/30 09:30:48;;;;;;;;;;;;;;;;;;5114594;28;1316;-75
2023/03/30 09:33:32;;;;;;;;;;;;;;;;;;5116118;28;823;-75
2023/03/30 09:36:04;;;;;;;;;;;;;;;;;;5113934;28;1214;-75
2023/03/30 09:38:31;;;;;;;;;;;;;;;;;;5095456;28;1151;-75
2023/03/30 09:40:57;;;;;;;;;;;;;;;;;;5094923;28;1906;-75
2023/03/30 09:43:22;;;;;;;;;;;;;;;;;;5094862;28;1309;-74
2023/03/30 09:45:47;;;;;;;;;;;;;;;;;;5093781;28;1226;-74
2023/03/30 09:48:15;;;;;;;;;;;;;;;;;;5094257;28;880;-75
2023/03/30 09:50:42;;;;;;;;;;;;;;;;;;5095251;28;824;-75
2023/03/30 09:53:28;;;;;;;;;;;;;;;;;;5093759;28;1221;-75
2023/03/30 09:56:00;;;;;;;;;;;;;;;;;;5093328;28;1356;-75
2023/03/30 09:58:30;;;;;;;;;;;;;;;;;;5093880;28;1300;-75
2023/03/30 10:01:01;;;;;;;;;;;;;;;;;;5094992;28;1901;-75
2023/03/30 10:03:28;;;;;;;;;;;;;;;;;;5094993;28;1190;-75
2023/03/30 10:06:01;;;;;;;;;;;;;;;;;;5107817;28;868;-77
2023/03/30 10:08:27;;;;;;;;;;;;;;;;;;5109154;28;990;-76
2023/03/30 10:10:53;;;;;;;;;;;;;;;;;;5107089;28;1174;-76
2023/03/30 10:13:20;;;;;;;;;;;;;;;;;;5109189;28;1182;-76
2023/03/30 10:15:50;;;;;;;;;;;;;;;;;;5110253;28;773;-76
2023/03/30 10:18:18;;;;;;;;;;;;;;;;;;5107129;28;1235;-76
2023/03/30 10:21:01;;;;;;;;;;;;;;;;;;5104014;28;1955;-75
2023/03/30 10:23:29;;;;;;;;;;;;;;;;;;5107599;28;1324;-76
2023/03/30 10:26:00;;;;;;;;;;;;;;;;;;5107656;28;820;-75
2023/03/30 10:28:26;;;;;;;;;;;;;;;;;;5108977;28;1273;-76
2023/03/30 10:30:54;;;;;;;;;;;;;;;;;;5110734;28;955;-76
2023/03/30 10:33:20;;;;;;;;;;;;;;;;;;5109300;28;971;-76
2023/03/30 10:35:48;;;;;;;;;;;;;;;;;;5107615;28;1190;-76
2023/03/30 10:38:14;;;;;;;;;;;;;;;;;;5105740;28;1120;-75
2023/03/30 10:40:40;;;;;;;;;;;;;;;;;;5107813;28;1970;-76
2023/03/30 10:43:14;;;;;;;;;;;;;;;;;;5091795;28;1155;-75
2023/03/30 10:45:42;;;;;;;;;;;;;;;;;;5109086;28;1427;-76
2023/03/30 10:48:20;;;;;;;;;;;;;;;;;;5108602;28;1277;-77
2023/03/30 10:50:48;;;;;;;;;;;;;;;;;;5096443;28;860;-76
2023/03/30 10:53:13;;;;;;;;;;;;;;;;;;5094306;28;1182;-76
2023/03/30 10:55:57;;;;;;;;;;;;;;;;;;5094904;28;972;-76
2023/03/30 10:58:22;;;;;;;;;;;;;;;;;;5093854;28;1202;-76
2023/03/30 11:00:50;;;;;;;;;;;;;;;;;;5094234;28;1894;-75
2023/03/30 11:03:23;;;;;;;;;;;;;;;;;;5094629;28;852;-76
2023/03/30 11:05:50;;;;;;;;;;;;;;;;;;5094214;28;888;-75
2023/03/30 11:08:20;;;;;;;;;;;;;;;;;;5093367;28;1445;-76
2023/03/30 11:10:47;;;;;;;;;;;;;;;;;;5094585;28;852;-76
2023/03/30 11:13:16;;;;;;;;;;;;;;;;;;5096957;28;1285;-76
2023/03/30 11:15:45;;;;;;;;;;;;;;;;;;5100115;28;1190;-76
2023/03/30 11:18:15;;;;;;;;;;;;;;;;;;5099888;28;998;-76
2023/03/30 11:20:44;;;;;;;;;;;;;;;;;;5093023;28;1955;-76
2023/03/30 11:23:17;;;;;;;;;;;;;;;;;;5092365;28;1250;-76
2023/03/30 11:25:45;;;;;;;;;;;;;;;;;;5092875;28;821;-76
2023/03/30 11:28:26;;;;;;;;;;;;;;;;;;5091889;28;1222;-76
2023/03/30 11:30:54;;;;;;;;;;;;;;;;;;5091263;28;1439;-76
2023/03/30 11:33:33;;;;;;;;;;;;;;;;;;5091745;28;1189;-76
2023/03/30 11:36:00;;;;;;;;;;;;;;;;;;5092118;28;1293;-76
2023/03/30 11:38:43;;;;;;;;;;;;;;;;;;5091965;28;1293;-76
2023/03/30 11:41:11;;;;;;;;;;;;;;;;;;5091442;28;1897;-76
2023/03/30 11:43:37;;;;;;;;;;;;;;;;;;5091671;28;1114;-76
2023/03/30 11:46:07;;;;;;;;;;;;;;;;;;5091171;28;1263;-76
2023/03/30 11:48:48;;;;;;;;;;;;;;;;;;5091848;28;1142;-76
2023/03/30 11:51:13;;;;;;;;;;;;;;;;;;5091188;28;1218;-76
2023/03/30 11:53:49;;;;;;;;;;;;;;;;;;5091500;28;1140;-76
2023/03/30 11:56:21;;;;;;;;;;;;;;;;;;5092311;28;946;-76
2023/03/30 11:58:55;;;;;;;;;;;;;;;;;;5092311;28;895;-76
2023/03/30 12:01:20;;;;;;;;;;;;;;;;;;5092401;28;1902;-76
2023/03/30 12:03:50;;;;;;;;;;;;;;;;;;5091032;28;1375;-76
2023/03/30 12:06:24;;;;;;;;;;;;;;;;;;5091259;28;1167;-76
2023/03/30 12:08:59;;;;;;;;;;;;;;;;;;5091020;28;1221;-76
2023/03/30 12:11:27;;;;;;;;;;;;;;;;;;5091287;28;1217;-75
2023/03/30 12:13:53;;;;;;;;;;;;;;;;;;5090627;28;1194;-76
2023/03/30 12:16:27;;;;;;;;;;;;;;;;;;5091112;28;844;-76
2023/03/30 12:19:11;;;;;;;;;;;;;;;;;;5091937;28;841;-76
2023/03/30 12:22:03;;;;;;;;;;;;;;;;;;5090521;28;1898;-76
2023/03/30 12:24:28;;;;;;;;;;;;;;;;;;5067795;28;1307;-76
2023/03/30 12:26:54;;;;;;;;;;;;;;;;;;5091124;28;1317;-76
2023/03/30 12:29:20;;;;;;;;;;;;;;;;;;5091245;28;829;-76
2023/03/30 12:31:48;;;;;;;;;;;;;;;;;;5093128;28;880;-76
2023/03/30 12:34:13;;;;;;;;;;;;;;;;;;5092753;28;1186;-76
2023/03/30 12:36:39;;;;;;;;;;;;;;;;;;5093983;28;876;-76
2023/03/30 12:39:31;;;;;;;;;;;;;;;;;;5092726;28;1199;-75
2023/03/30 12:42:03;;;;;;;;;;;;;;;;;;5072379;28;1973;-75
2023/03/30 12:44:35;;;;;;;;;;;;;;;;;;5095419;28;1190;-76
2023/03/30 12:47:00;;;;;;;;;;;;;;;;;;5094994;28;1083;-76
2023/03/30 12:49:42;;;;;;;;;;;;;;;;;;5095390;28;1458;-76
2023/03/30 12:52:13;;;;;;;;;;;;;;;;;;5094900;28;1186;-74
2023/03/30 12:54:44;;;;;;;;;;;;;;;;;;5094014;28;1189;-75
2023/03/30 12:57:21;;;;;;;;;;;;;;;;;;5094465;28;1301;-75
2023/03/30 13:00:06;;;;;;;;;;;;;;;;;;5095511;28;1909;-76
2023/03/30 13:02:45;;;;;;;;;;;;;;;;;;5094721;28;1229;-76
2023/03/30 13:05:17;;;;;;;;;;;;;;;;;;5094299;28;1178;-76
2023/03/30 13:07:43;;;;;;;;;;;;;;;;;;5095522;28;840;-76
2023/03/30 13:10:27;;;;;;;;;;;;;;;;;;5077406;28;1181;-76
2023/03/30 13:12:54;;;;;;;;;;;;;;;;;;5095056;28;964;-76
2023/03/30 13:15:40;;;;;;;;;;;;;;;;;;5094163;28;1290;-76
2023/03/30 13:18:08;;;;;;;;;;;;;;;;;;5094119;28;1217;-75
2023/03/30 13:20:43;;;;;;;;;;;;;;;;;;5093727;28;1902;-75
2023/03/30 13:23:08;;;;;;;;;;;;;;;;;;5094136;28;1283;-76
2023/03/30 13:25:51;;;;;;;;;;;;;;;;;;5095233;28;887;-75
2023/03/30 13:28:29;;;;;;;;;;;;;;;;;;5094978;28;1230;-75
2023/03/30 13:30:59;;;;;;;;;;;;;;;;;;5093948;28;1254;-77
2023/03/30 13:33:26;;;;;;;;;;;;;;;;;;5094238;28;1123;-75
2023/03/30 13:35:51;;;;;;;;;;;;;;;;;;5093211;28;1178;-75
2023/03/30 13:38:19;;;;;;;;;;;;;;;;;;5095430;28;940;-75
2023/03/30 13:40:44;;;;;;;;;;;;;;;;;;5093368;28;1913;-75
2023/03/30 13:43:32;;;;;;;;;;;;;;;;;;5094294;28;1321;-75
2023/03/30 13:46:05;;;;;;;;;;;;;;;;;;5092768;28;1357;-75
2023/03/30 13:48:31;;;;;;;;;;;;;;;;;;5093729;28;1182;-75
2023/03/30 13:50:58;;;;;;;;;;;;;;;;;;5094654;28;939;-74
2023/03/30 13:53:26;;;;;;;;;;;;;;;;;;5094494;28;967;-75
2023/03/30 13:55:55;;;;;;;;;;;;;;;;;;5095884;28;1378;-75
2023/03/30 13:58:28;;;;;;;;;;;;;;;;;;5114780;28;1642;-75
2023/03/30 14:00:55;;;;;;;;;;;;;;;;;;5115283;28;1969;-76
2023/03/30 14:03:32;;;;;;;;;;;;;;;;;;5114231;28;1113;-76
2023/03/30 14:06:02;;;;;;;;;;;;;;;;;;5114235;28;1055;-74
2023/03/30 14:08:29;;;;;;;;;;;;;;;;;;5114939;28;1300;-75
2023/03/30 14:10:55;;;;;;;;;;;;;;;;;;5113942;28;1288;-73
2023/03/30 14:13:21;;;;;;;;;;;;;;;;;;5115825;28;903;-75
2023/03/30 14:15:49;;;;;;;;;;;;;;;;;;5113213;28;1390;-75
2023/03/30 14:18:20;;;;;;;;;;;;;;;;;;5113948;28;1194;-74
2023/03/30 14:20:45;;;;;;;;;;;;;;;;;;5114041;28;1905;-74
2023/03/30 14:23:16;;;;;;;;;;;;;;;;;;5113844;28;1320;-74
2023/03/30 14:25:41;;;;;;;;;;;;;;;;;;5114890;28;860;-74
2023/03/30 14:28:12;;;;;;;;;;;;;;;;;;5114219;28;899;-74
2023/03/30 14:30:46;;;;;;;;;;;;;;;;;;5114823;28;915;-74
2023/03/30 14:33:11;;;;;;;;;;;;;;;;;;5114995;28;888;-74
2023/03/30 14:35:40;;;;;;;;;;;;;;;;;;5112980;28;1190;-75
2023/03/30 14:38:06;;;;;;;;;;;;;;;;;;5100408;28;1193;-75
2023/03/30 14:40:37;;;;;;;;;;;;;;;;;;5093707;28;1938;-75
2023/03/30 14:43:02;;;;;;;;;;;;;;;;;;5092366;28;1301;-75
2023/03/30 14:45:28;;;;;;;;;;;;;;;;;;5075892;28;1299;-74
2023/03/30 14:47:55;;;;;;;;;;;;;;;;;;5075514;28;1298;-75
2023/03/30 14:50:21;;;;;;;;;;;;;;;;;;5075311;28;1206;-74
2023/03/30 14:52:47;;;;;;;;;;;;;;;;;;5092674;28;855;-74
2023/03/30 14:55:21;;;;;;;;;;;;;;;;;;5092239;28;1202;-74
2023/03/30 14:57:47;;;;;;;;;;;;;;;;;;5093280;28;871;-74
2023/03/30 15:00:19;;;;;;;;;;;;;;;;;;5074538;28;1967;-74
2023/03/30 15:02:45;;;;;;;;;;;;;;;;;;5091176;28;1308;-74
2023/03/30 15:05:11;;;;;;;;;;;;;;;;;;5092053;28;1079;-74
2023/03/30 15:07:36;;;;;;;;;;;;;;;;;;5093083;28;906;-77
2023/03/30 15:10:02;;;;;;;;;;;;;;;;;;5091849;28;1250;-77
2023/03/30 15:12:30;;;;;;;;;;;;;;;;;;5092286;28;1404;-76
2023/03/30 15:14:58;;;;;;;;;;;;;;;;;;5093332;28;1093;-74
2023/03/30 15:17:25;;;;;;;;;;;;;;;;;;5092892;28;836;-74
2023/03/30 15:19:53;;;;;;;;;;;;;;;;;;5091522;28;1909;-75
2023/03/30 15:22:30;;;;;;;;;;;;;;;;;;5091365;28;857;-74
2023/03/30 15:24:57;;;;;;;;;;;;;;;;;;5092733;28;849;-74
2023/03/30 15:27:23;;;;;;;;;;;;;;;;;;5090503;28;1388;-74
2023/03/30 15:29:48;;;;;;;;;;;;;;;;;;5092319;28;904;-74
2023/03/30 15:32:14;;;;;;;;;;;;;;;;;;5090902;28;1239;-75
2023/03/30 15:35:05;;;;;;;;;;;;;;;;;;5092809;28;880;-74
2023/03/30 15:37:33;;;;;;;;;;;;;;;;;;5091582;28;1359;-75
2023/03/30 15:39:58;;;;;;;;;;;;;;;;;;5090969;28;1913;-75
2023/03/30 15:42:26;;;;;;;;;;;;;;;;;;5093429;28;844;-75
2023/03/30 15:45:11;;;;;;;;;;;;;;;;;;5091355;28;1378;-74
2023/03/30 15:47:37;;;;;;;;;;;;;;;;;;5091997;28;1284;-75
2023/03/30 15:50:03;;;;;;;;;;;;;;;;;;5091813;28;900;-75
2023/03/30 15:52:36;;;;;;;;;;;;;;;;;;5074446;28;1194;-74
2023/03/30 15:55:16;;;;;;;;;;;;;;;;;;5092789;28;965;-74
2023/03/30 15:57:44;;;;;;;;;;;;;;;;;;5092498;28;833;-74
2023/03/30 16:00:13;;;;;;;;;;;;;;;;;;5091143;28;1956;-74
2023/03/30 16:02:38;;;;;;;;;;;;;;;;;;5091493;28;1174;-74
2023/03/30 16:05:05;;;;;;;;;;;;;;;;;;5091856;28;1226;-74
2023/03/30 16:07:31;;;;;;;;;;;;;;;;;;5092994;28;899;-74
2023/03/30 16:09:56;;;;;;;;;;;;;;;;;;5092151;28;977;-74
2023/03/30 16:12:28;;;;;;;;;;;;;;;;;;5092750;28;778;-74
2023/03/30 16:14:54;;;;;;;;;;;;;;;;;;5091194;28;1277;-75
2023/03/30 16:17:20;;;;;;;;;;;;;;;;;;5094822;28;1202;-74
2023/03/30 16:19:45;;;;;;;;;;;;;;;;;;5094822;28;888;-74
2023/03/30 16:22:11;;;;;;;;;;;;;;;;;;5095086;28;1964;-74
2023/03/30 16:24:37;;;;;;;;;;;;;;;;;;5094645;28;1224;-74
2023/03/30 16:27:03;;;;;;;;;;;;;;;;;;5094828;28;1250;-74
2023/03/30 16:29:30;;;;;;;;;;;;;;;;;;5094168;28;1218;-74
2023/03/30 16:31:55;;;;;;;;;;;;;;;;;;5094063;28;1309;-74
2023/03/30 16:34:21;;;;;;;;;;;;;;;;;;5094310;28;1106;-74
2023/03/30 16:36:46;;;;;;;;;;;;;;;;;;5077411;28;1134;-74
2023/03/30 16:39:16;;;;;;;;;;;;;;;;;;5077679;28;1226;-74
2023/03/30 16:41:43;;;;;;;;;;;;;;;;;;5093888;28;1902;-75
2023/03/30 16:44:08;;;;;;;;;;;;;;;;;;5093737;28;1317;-74
2023/03/30 16:46:36;;;;;;;;;;;;;;;;;;5077287;28;1119;-74
2023/03/30 16:49:02;;;;;;;;;;;;;;;;;;5093991;28;1088;-74
2023/03/30 16:51:27;;;;;;;;;;;;;;;;;;5093986;28;892;-73
2023/03/30 16:53:52;;;;;;;;;;;;;;;;;;5094411;28;872;-77
2023/03/30 16:56:18;;;;;;;;;;;;;;;;;;5094319;28;921;-76
2023/03/30 16:58:44;;;;;;;;;;;;;;;;;;5094253;28;1006;-77
2023/03/30 17:01:11;;;;;;;;;;;;;;;;;;5093188;28;1964;-77
2023/03/30 17:03:37;;;;;;;;;;;;;;;;;;5095118;28;864;-77
2023/03/30 17:06:02;;;;;;;;;;;;;;;;;;5095454;28;908;-77
2023/03/30 17:08:28;;;;;;;;;;;;;;;;;;5094690;28;1018;-78
2023/03/30 17:10:59;;;;;;;;;;;;;;;;;;5094725;28;1278;-79
2023/03/30 17:13:25;;;;;;;;;;;;;;;;;;5095775;28;1226;-79
2023/03/30 17:15:50;;;;;;;;;;;;;;;;;;5096262;28;1332;-78
2023/03/30 17:18:20;;;;;;;;;;;;;;;;;;5095924;28;805;-77